createdAt,value
2023-04-30T00:00:18.848Z,6.80
2023-04-30T00:05:23.726Z,7.28
2023-04-30T00:10:27.146Z,7.07
2023-04-30T00:15:31.152Z,8.35
2023-04-30T00:20:35.970Z,7.63
2023-04-30T00:25:39.299Z,6.25
2023-04-30T00:30:42.648Z,7.38
2023-04-30T00:35:48.414Z,9.02
2023-04-30T00:40:52.309Z,6.30
2023-04-30T00:45:55.669Z,6.60
2023-04-30T00:51:02.806Z,5.72
2023-04-30T00:56:09.008Z,6.88
2023-04-30T01:01:12.762Z,6.63
2023-04-30T01:06:17.617Z,6.40
2023-04-30T01:11:32.998Z,8.20
2023-04-30T01:16:42.933Z,6.78
2023-04-30T01:21:48.951Z,6.13
2023-04-30T01:27:13.825Z,6.78
2023-04-30T01:32:18.555Z,6.07
2023-04-30T01:37:32.682Z,9.40
2023-04-30T01:42:46.857Z,6.85
2023-04-30T01:47:58.938Z,7.10
2023-04-30T01:53:10.805Z,10.20
2023-04-30T01:58:16.904Z,7.22
2023-04-30T02:03:21.831Z,7.47
2023-04-30T02:08:25.311Z,6.95
2023-04-30T02:13:28.717Z,6.60
2023-04-30T02:18:33.441Z,7.60
2023-04-30T02:23:36.802Z,5.72
2023-04-30T02:28:40.221Z,7.05
2023-04-30T02:33:45.135Z,6.50
2023-04-30T02:38:48.534Z,6.18
2023-04-30T02:43:52.792Z,7.07
2023-04-30T02:48:57.601Z,6.72
2023-04-30T02:54:00.942Z,6.00
2023-04-30T02:59:04.299Z,7.63
2023-04-30T03:04:09.149Z,5.18
2023-04-30T03:09:12.551Z,6.55
2023-04-30T03:14:16.026Z,6.03
2023-04-30T03:19:24.998Z,7.13
2023-04-30T03:24:28.360Z,5.68
2023-04-30T03:29:31.771Z,6.03
2023-04-30T03:34:36.747Z,6.47
2023-04-30T03:39:40.134Z,6.65
2023-04-30T03:44:43.611Z,5.95
2023-04-30T03:49:55.083Z,5.10
2023-04-30T03:54:59.793Z,4.95
2023-04-30T04:00:04.390Z,5.20
2023-04-30T04:05:17.858Z,4.70
2023-04-30T04:10:22.472Z,7.22
2023-04-30T04:15:25.863Z,5.47
2023-04-30T04:20:31.288Z,7.35
2023-04-30T04:25:35.222Z,4.45
2023-04-30T04:30:39.027Z,5.70
2023-04-30T04:35:43.800Z,6.82
2023-04-30T04:40:54.195Z,6.15
2023-04-30T04:45:58.326Z,4.78
2023-04-30T04:51:03.325Z,7.10
2023-04-30T04:56:08.310Z,4.93
2023-04-30T05:01:12.019Z,5.43
2023-04-30T05:06:16.976Z,5.05
2023-04-30T05:11:21.891Z,4.25
2023-04-30T05:16:26.450Z,4.72
2023-04-30T05:21:32.064Z,4.82
2023-04-30T05:26:35.600Z,4.95
2023-04-30T05:31:39.102Z,6.55
2023-04-30T05:36:45.549Z,4.97
2023-04-30T05:41:49.112Z,5.60
2023-04-30T05:46:52.500Z,4.95
2023-04-30T05:51:57.495Z,4.38
2023-04-30T05:57:00.949Z,4.50
2023-04-30T06:02:04.433Z,5.05
2023-04-30T06:07:09.233Z,4.88
2023-04-30T06:12:12.652Z,4.43
2023-04-30T06:17:16.594Z,5.10
2023-04-30T06:22:21.295Z,4.25
2023-04-30T06:27:24.671Z,4.32
2023-04-30T06:32:28.114Z,4.88
2023-04-30T06:37:35.888Z,4.97
2023-04-30T06:47:42.952Z,4.15
2023-04-30T06:52:47.849Z,3.63
2023-04-30T06:57:51.216Z,4.65
2023-04-30T07:02:54.625Z,5.75
2023-04-30T07:08:00.087Z,5.20
2023-04-30T07:13:03.440Z,11.15
2023-04-30T07:18:06.772Z,12.02
2023-04-30T07:23:11.518Z,12.27
2023-04-30T07:28:14.862Z,7.43
2023-04-30T07:33:18.257Z,8.40
2023-04-30T07:38:23.869Z,8.30
2023-04-30T07:43:27.214Z,9.45
2023-04-30T07:48:30.686Z,8.88
2023-04-30T07:53:35.495Z,18.85
2023-04-30T07:58:39.003Z,10.90
2023-04-30T08:03:42.516Z,10.98
2023-04-30T08:08:48.193Z,9.93
2023-04-30T08:13:52.159Z,8.10
2023-04-30T08:18:55.963Z,8.50
2023-04-30T08:24:00.715Z,5.57
2023-04-30T08:29:04.109Z,5.65
2023-04-30T08:34:07.464Z,5.53
2023-04-30T08:39:12.945Z,7.32
2023-04-30T08:44:16.369Z,6.07
2023-04-30T08:49:19.835Z,5.88
2023-04-30T08:54:27.659Z,6.43
2023-04-30T08:59:31.107Z,6.13
2023-04-30T09:04:35.288Z,5.38
2023-04-30T09:09:41.728Z,7.55
2023-04-30T09:15:01.479Z,4.88
2023-04-30T09:20:10.931Z,6.75
2023-04-30T09:25:16.355Z,8.43
2023-04-30T09:30:33.782Z,7.15
2023-04-30T09:35:41.609Z,8.05
2023-04-30T09:40:46.521Z,11.85
2023-04-30T09:45:51.563Z,6.82
2023-04-30T09:50:55.246Z,8.80
2023-04-30T09:56:02.214Z,7.20
2023-04-30T10:01:07.897Z,7.03
2023-04-30T10:06:15.632Z,6.93
2023-04-30T10:16:40.497Z,5.37
2023-04-30T10:21:47.306Z,8.18
2023-04-30T10:26:52.062Z,7.10
2023-04-30T10:31:56.891Z,5.47
2023-04-30T10:37:07.689Z,6.35
2023-04-30T10:42:13.213Z,8.38
2023-04-30T10:47:20.000Z,7.22
2023-04-30T10:52:30.560Z,6.27
2023-04-30T10:57:43.115Z,5.82
2023-04-30T11:02:49.903Z,6.45
2023-04-30T11:07:59.426Z,6.57
2023-04-30T11:13:10.248Z,5.68
2023-04-30T11:18:15.464Z,4.78
2023-04-30T11:23:32.181Z,4.70
2023-04-30T11:28:54.352Z,6.13
2023-04-30T11:33:57.824Z,6.88
2023-04-30T11:39:06.156Z,6.10
2023-04-30T11:44:27.377Z,4.40
2023-04-30T11:49:31.515Z,3.92
2023-04-30T11:54:37.329Z,3.67
2023-04-30T11:59:45.530Z,5.07
2023-04-30T12:04:49.068Z,4.45
2023-04-30T12:09:56.076Z,3.95
2023-04-30T12:15:17.457Z,3.65
2023-04-30T12:20:23.023Z,4.32
2023-04-30T12:25:30.263Z,3.95
2023-04-30T12:30:35.083Z,4.13
2023-04-30T12:35:38.573Z,4.07
2023-04-30T12:40:41.944Z,3.67
2023-04-30T12:45:51.597Z,4.40
2023-04-30T12:50:59.816Z,3.28
2023-04-30T12:56:16.406Z,3.53
2023-04-30T13:01:24.397Z,3.58
2023-04-30T13:06:29.266Z,3.83
2023-04-30T13:11:32.634Z,4.55
2023-04-30T13:16:39.470Z,3.72
2023-04-30T13:21:43.564Z,4.15
2023-04-30T13:26:47.531Z,3.35
2023-04-30T13:31:52.346Z,3.67
2023-04-30T13:36:55.840Z,3.55
2023-04-30T13:41:59.212Z,3.25
2023-04-30T13:47:04.095Z,3.10
2023-04-30T13:52:07.523Z,4.25
2023-04-30T13:57:11.167Z,3.47
2023-04-30T14:02:15.904Z,2.97
2023-04-30T14:07:19.327Z,3.55
2023-04-30T14:12:24.035Z,3.00
2023-04-30T14:17:29.628Z,3.28
2023-04-30T14:22:34.596Z,3.08
2023-04-30T14:27:39.130Z,2.92
2023-04-30T14:32:43.911Z,3.25
2023-04-30T14:37:47.290Z,3.67
2023-04-30T14:42:51.403Z,2.80
2023-04-30T14:47:56.317Z,3.53
2023-04-30T14:52:59.696Z,3.65
2023-04-30T14:58:03.069Z,3.50
2023-04-30T15:03:08.010Z,3.65
2023-04-30T15:08:11.728Z,2.97
2023-04-30T15:13:15.143Z,2.83
2023-04-30T15:18:19.941Z,2.78
2023-04-30T15:23:23.571Z,3.22
2023-04-30T15:28:27.018Z,3.28
2023-04-30T15:33:31.811Z,1.90
2023-04-30T15:38:35.299Z,3.58
2023-04-30T15:43:38.678Z,2.55
2023-04-30T15:48:43.526Z,2.72
2023-04-30T15:53:46.885Z,3.47
2023-04-30T15:58:50.719Z,2.72
2023-04-30T16:03:56.611Z,2.55
2023-04-30T16:09:00.631Z,2.63
2023-04-30T16:14:04.474Z,2.80
2023-04-30T16:19:10.006Z,2.50
2023-04-30T16:24:15.719Z,2.70
2023-04-30T16:29:19.209Z,3.85
2023-04-30T16:34:24.165Z,2.38
2023-04-30T16:39:27.559Z,3.78
2023-04-30T16:44:30.921Z,2.65
2023-04-30T16:49:35.758Z,2.97
2023-04-30T16:54:39.167Z,3.15
2023-04-30T16:59:42.533Z,3.83
2023-04-30T17:04:47.242Z,2.95
2023-04-30T17:09:50.610Z,2.83
2023-04-30T17:14:54.039Z,3.40
2023-04-30T17:19:58.992Z,2.85
2023-04-30T17:25:04.191Z,2.60
2023-04-30T17:30:09.842Z,2.70
2023-04-30T17:35:14.938Z,2.80
2023-04-30T17:40:18.534Z,2.28
2023-04-30T17:45:22.183Z,3.78
2023-04-30T17:50:27.004Z,4.95
2023-04-30T17:55:30.400Z,2.83
2023-04-30T18:00:34.314Z,4.30
2023-04-30T18:05:39.566Z,5.47
2023-04-30T18:10:43.002Z,4.07
2023-04-30T18:15:46.898Z,4.32
2023-04-30T18:20:51.726Z,3.70
2023-04-30T18:25:55.343Z,3.22
2023-04-30T18:30:58.734Z,3.78
2023-04-30T18:36:06.009Z,6.25
2023-04-30T18:41:09.429Z,7.20
2023-04-30T18:46:12.811Z,4.72
2023-04-30T18:51:17.676Z,4.78
2023-04-30T18:56:22.036Z,4.93
2023-04-30T19:01:27.394Z,2.80
2023-04-30T19:06:33.385Z,4.25
2023-04-30T19:11:37.061Z,5.25
2023-04-30T19:16:40.559Z,4.60
2023-04-30T19:21:45.471Z,5.55
2023-04-30T19:26:49.572Z,3.13
2023-04-30T19:31:53.536Z,4.13
2023-04-30T19:36:58.611Z,5.10
2023-04-30T19:42:02.014Z,6.43
2023-04-30T19:47:05.749Z,5.00
2023-04-30T19:52:10.807Z,3.85
2023-04-30T19:57:14.222Z,5.68
2023-04-30T20:02:17.730Z,3.03
2023-04-30T20:07:22.555Z,6.00
2023-04-30T20:12:25.972Z,3.05
2023-04-30T20:17:29.496Z,5.82
2023-04-30T20:22:34.642Z,2.67
2023-04-30T20:27:38.210Z,10.02
2023-04-30T20:32:42.524Z,3.13
2023-04-30T20:37:49.642Z,5.07
2023-04-30T20:42:53.244Z,7.57
2023-04-30T20:47:57.052Z,7.82
2023-04-30T20:53:01.871Z,5.57
2023-04-30T20:58:05.281Z,4.85
2023-04-30T21:03:09.387Z,7.30
2023-04-30T21:08:14.503Z,7.70
2023-04-30T21:13:17.842Z,8.50
2023-04-30T21:18:21.238Z,4.47
2023-04-30T21:23:26.010Z,4.10
2023-04-30T21:28:29.625Z,4.15
2023-04-30T21:33:33.392Z,3.20
2023-04-30T21:38:38.883Z,7.63
2023-04-30T21:43:42.526Z,3.08
2023-04-30T21:48:47.049Z,4.68
2023-04-30T21:53:51.934Z,4.93
2023-04-30T21:58:55.507Z,2.20
2023-04-30T22:03:58.957Z,5.18
2023-04-30T22:09:04.509Z,3.13
2023-04-30T22:14:07.856Z,3.92
2023-04-30T22:19:11.323Z,4.00
2023-04-30T22:24:16.198Z,3.63
2023-04-30T22:29:19.747Z,2.40
2023-04-30T22:34:23.909Z,3.03
2023-04-30T22:39:28.610Z,3.72
2023-04-30T22:44:32.506Z,4.50
2023-04-30T22:49:37.359Z,2.92
2023-04-30T22:54:42.798Z,3.03
2023-04-30T22:59:46.194Z,3.13
2023-04-30T23:04:49.640Z,2.88
2023-04-30T23:09:54.742Z,3.20
2023-04-30T23:14:58.240Z,3.97
2023-04-30T23:20:01.641Z,1.75
2023-04-30T23:25:07.467Z,2.25
2023-04-30T23:30:12.322Z,3.05
2023-04-30T23:35:15.698Z,4.78
2023-04-30T23:40:20.451Z,3.40
2023-04-30T23:45:24.102Z,3.50
2023-04-30T23:50:27.955Z,2.33
2023-04-30T23:55:32.812Z,2.53
